sensor_id;sensor_type;location;lat;lon;timestamp;pressure;altitude;pressure_sealevel;temperature;humidity
75196;BME280;63773;42.282;22.782;2023-05-07T00:01:49;96632.66;;;10.63;71.71
75196;BME280;63773;42.282;22.782;2023-05-07T00:04:14;96640.44;;;10.76;70.63
75196;BME280;63773;42.282;22.782;2023-05-07T00:06:40;96631.13;;;10.24;71.76
75196;BME280;63773;42.282;22.782;2023-05-07T00:09:06;96652.63;;;10.64;71.19
75196;BME280;63773;42.282;22.782;2023-05-07T00:11:32;96661.81;;;10.79;71.29
75196;BME280;63773;42.282;22.782;2023-05-07T00:13:57;96653.28;;;10.49;72.85
75196;BME280;63773;42.282;22.782;2023-05-07T00:16:23;96635.59;;;10.57;71.87
75196;BME280;63773;42.282;22.782;2023-05-07T00:18:48;96612.34;;;10.59;71.17
75196;BME280;63773;42.282;22.782;2023-05-07T00:21:14;96630.47;;;10.65;71.53
75196;BME280;63773;42.282;22.782;2023-05-07T00:23:39;96645.56;;;10.68;72.13
75196;BME280;63773;42.282;22.782;2023-05-07T00:26:04;96646.91;;;10.65;72.13
75196;BME280;63773;42.282;22.782;2023-05-07T00:28:30;96643.22;;;10.81;71.97
75196;BME280;63773;42.282;22.782;2023-05-07T00:30:55;96656.09;;;10.81;71.97
75196;BME280;63773;42.282;22.782;2023-05-07T00:33:21;96624.44;;;10.63;71.56
75196;BME280;63773;42.282;22.782;2023-05-07T00:35:47;96673.44;;;10.91;71.29
75196;BME280;63773;42.282;22.782;2023-05-07T00:38:13;96622.22;;;10.60;71.00
75196;BME280;63773;42.282;22.782;2023-05-07T00:40:38;96660.50;;;10.87;70.57
75196;BME280;63773;42.282;22.782;2023-05-07T00:43:04;96661.31;;;10.82;70.91
75196;BME280;63773;42.282;22.782;2023-05-07T00:45:29;96650.81;;;10.48;71.91
75196;BME280;63773;42.282;22.782;2023-05-07T00:47:56;96666.72;;;10.51;72.79
75196;BME280;63773;42.282;22.782;2023-05-07T00:50:22;96661.03;;;10.57;72.54
75196;BME280;63773;42.282;22.782;2023-05-07T00:52:48;96650.88;;;10.53;72.19
75196;BME280;63773;42.282;22.782;2023-05-07T00:55:14;96667.03;;;10.54;73.02
75196;BME280;63773;42.282;22.782;2023-05-07T00:57:40;96665.53;;;10.68;72.25
75196;BME280;63773;42.282;22.782;2023-05-07T01:00:07;96629.84;;;10.10;72.82
75196;BME280;63773;42.282;22.782;2023-05-07T01:02:40;96659.16;;;10.36;73.22
75196;BME280;63773;42.282;22.782;2023-05-07T01:05:09;96663.69;;;10.25;72.44
75196;BME280;63773;42.282;22.782;2023-05-07T01:07:37;96666.41;;;10.25;72.54
75196;BME280;63773;42.282;22.782;2023-05-07T01:10:04;96622.59;;;9.99;73.25
75196;BME280;63773;42.282;22.782;2023-05-07T01:12:30;96655.28;;;10.32;72.08
75196;BME280;63773;42.282;22.782;2023-05-07T01:14:56;96668.03;;;10.21;73.70
75196;BME280;63773;42.282;22.782;2023-05-07T01:17:22;96667.66;;;10.13;74.30
75196;BME280;63773;42.282;22.782;2023-05-07T01:19:48;96662.78;;;10.20;73.66
75196;BME280;63773;42.282;22.782;2023-05-07T01:22:16;96657.31;;;10.20;73.98
75196;BME280;63773;42.282;22.782;2023-05-07T01:24:45;96648.00;;;9.99;74.17
75196;BME280;63773;42.282;22.782;2023-05-07T01:27:10;96668.34;;;10.08;73.35
75196;BME280;63773;42.282;22.782;2023-05-07T01:29:35;96668.63;;;10.07;73.61
75196;BME280;63773;42.282;22.782;2023-05-07T01:32:01;96660.06;;;10.20;74.12
75196;BME280;63773;42.282;22.782;2023-05-07T01:34:30;96661.31;;;10.12;74.31
75196;BME280;63773;42.282;22.782;2023-05-07T01:36:57;96640.75;;;9.88;73.22
75196;BME280;63773;42.282;22.782;2023-05-07T01:39:25;96667.78;;;10.06;73.67
75196;BME280;63773;42.282;22.782;2023-05-07T01:41:52;96668.06;;;9.66;74.49
75196;BME280;63773;42.282;22.782;2023-05-07T01:44:19;96645.66;;;9.48;74.57
75196;BME280;63773;42.282;22.782;2023-05-07T01:46:45;96671.56;;;9.62;73.78
75196;BME280;63773;42.282;22.782;2023-05-07T01:49:11;96660.44;;;9.68;73.45
75196;BME280;63773;42.282;22.782;2023-05-07T01:51:37;96665.78;;;9.80;73.38
75196;BME280;63773;42.282;22.782;2023-05-07T01:54:02;96634.84;;;9.36;73.27
75196;BME280;63773;42.282;22.782;2023-05-07T01:56:27;96653.63;;;9.33;74.64
75196;BME280;63773;42.282;22.782;2023-05-07T01:58:53;96631.59;;;9.39;74.54
75196;BME280;63773;42.282;22.782;2023-05-07T02:01:18;96653.09;;;9.52;73.81
75196;BME280;63773;42.282;22.782;2023-05-07T02:03:44;96631.72;;;9.11;73.96
75196;BME280;63773;42.282;22.782;2023-05-07T02:06:10;96669.53;;;9.19;74.23
75196;BME280;63773;42.282;22.782;2023-05-07T02:08:35;96666.03;;;9.23;74.87
75196;BME280;63773;42.282;22.782;2023-05-07T02:11:00;96653.69;;;9.38;73.42
75196;BME280;63773;42.282;22.782;2023-05-07T02:13:33;96658.09;;;9.22;74.77
75196;BME280;63773;42.282;22.782;2023-05-07T02:16:02;96664.97;;;9.24;74.06
75196;BME280;63773;42.282;22.782;2023-05-07T02:18:28;96638.31;;;9.32;72.96
75196;BME280;63773;42.282;22.782;2023-05-07T02:20:54;96627.22;;;9.38;72.71
75196;BME280;63773;42.282;22.782;2023-05-07T02:23:19;96656.69;;;9.36;73.06
75196;BME280;63773;42.282;22.782;2023-05-07T02:25:44;96650.88;;;9.33;73.99
75196;BME280;63773;42.282;22.782;2023-05-07T02:28:11;96633.59;;;9.27;74.17
75196;BME280;63773;42.282;22.782;2023-05-07T02:30:37;96654.94;;;9.30;73.97
75196;BME280;63773;42.282;22.782;2023-05-07T02:33:02;96646.00;;;9.35;72.46
75196;BME280;63773;42.282;22.782;2023-05-07T02:35:28;96652.38;;;9.23;72.52
75196;BME280;63773;42.282;22.782;2023-05-07T02:37:53;96660.25;;;9.20;72.16
75196;BME280;63773;42.282;22.782;2023-05-07T02:40:19;96660.75;;;9.17;72.06
75196;BME280;63773;42.282;22.782;2023-05-07T02:42:44;96662.72;;;9.21;71.77
75196;BME280;63773;42.282;22.782;2023-05-07T02:45:10;96658.69;;;8.91;73.61
75196;BME280;63773;42.282;22.782;2023-05-07T02:47:36;96643.19;;;8.63;74.11
75196;BME280;63773;42.282;22.782;2023-05-07T02:50:01;96546.44;;;8.09;73.40
75196;BME280;63773;42.282;22.782;2023-05-07T02:52:27;96662.09;;;8.69;74.31
75196;BME280;63773;42.282;22.782;2023-05-07T02:54:52;96637.44;;;8.48;74.05
75196;BME280;63773;42.282;22.782;2023-05-07T02:57:18;96617.44;;;8.42;73.94
75196;BME280;63773;42.282;22.782;2023-05-07T02:59:43;96669.09;;;8.77;73.79
75196;BME280;63773;42.282;22.782;2023-05-07T03:02:08;96668.09;;;8.83;73.87
75196;BME280;63773;42.282;22.782;2023-05-07T03:04:34;96667.84;;;8.85;73.51
75196;BME280;63773;42.282;22.782;2023-05-07T03:07:00;96626.19;;;8.44;73.33
75196;BME280;63773;42.282;22.782;2023-05-07T03:09:25;96652.34;;;8.57;73.92
75196;BME280;63773;42.282;22.782;2023-05-07T03:11:51;96641.94;;;8.70;73.09
75196;BME280;63773;42.282;22.782;2023-05-07T03:14:17;96669.09;;;8.94;73.02
75196;BME280;63773;42.282;22.782;2023-05-07T03:16:42;96658.34;;;8.87;72.81
75196;BME280;63773;42.282;22.782;2023-05-07T03:19:07;96650.28;;;8.81;73.33
75196;BME280;63773;42.282;22.782;2023-05-07T03:21:33;96666.78;;;8.86;73.43
75196;BME280;63773;42.282;22.782;2023-05-07T03:24:00;96653.78;;;8.76;73.26
75196;BME280;63773;42.282;22.782;2023-05-07T03:26:25;96629.53;;;8.63;73.22
75196;BME280;63773;42.282;22.782;2023-05-07T03:28:51;96679.44;;;8.92;73.21
75196;BME280;63773;42.282;22.782;2023-05-07T03:31:17;96681.50;;;8.85;73.88
75196;BME280;63773;42.282;22.782;2023-05-07T03:33:53;96682.91;;;8.87;73.94
75196;BME280;63773;42.282;22.782;2023-05-07T03:36:19;96682.47;;;8.79;74.61
75196;BME280;63773;42.282;22.782;2023-05-07T03:38:44;96686.81;;;8.91;74.56
75196;BME280;63773;42.282;22.782;2023-05-07T03:43:45;96685.47;;;8.94;74.43
75196;BME280;63773;42.282;22.782;2023-05-07T03:46:10;96691.09;;;8.87;73.02
75196;BME280;63773;42.282;22.782;2023-05-07T03:48:36;96694.19;;;8.62;73.46
75196;BME280;63773;42.282;22.782;2023-05-07T03:51:01;96695.22;;;8.33;73.60
75196;BME280;63773;42.282;22.782;2023-05-07T03:53:27;96700.94;;;8.32;74.49
75196;BME280;63773;42.282;22.782;2023-05-07T03:55:52;96709.22;;;8.37;74.43
75196;BME280;63773;42.282;22.782;2023-05-07T03:58:17;96703.28;;;8.40;74.52
75196;BME280;63773;42.282;22.782;2023-05-07T04:00:43;96703.25;;;8.51;74.31
75196;BME280;63773;42.282;22.782;2023-05-07T04:03:08;96705.84;;;8.58;74.38
75196;BME280;63773;42.282;22.782;2023-05-07T04:05:34;96704.81;;;8.36;75.60
75196;BME280;63773;42.282;22.782;2023-05-07T04:08:00;96713.44;;;8.44;75.21
75196;BME280;63773;42.282;22.782;2023-05-07T04:10:26;96712.00;;;8.53;74.81
75196;BME280;63773;42.282;22.782;2023-05-07T04:12:51;96718.91;;;8.73;74.75
75196;BME280;63773;42.282;22.782;2023-05-07T04:15:17;96721.78;;;8.94;74.29
75196;BME280;63773;42.282;22.782;2023-05-07T04:17:43;96725.94;;;8.97;74.66
75196;BME280;63773;42.282;22.782;2023-05-07T04:20:14;96731.84;;;9.22;73.81
75196;BME280;63773;42.282;22.782;2023-05-07T04:22:40;96727.44;;;9.38;73.68
75196;BME280;63773;42.282;22.782;2023-05-07T04:25:06;96734.00;;;9.53;73.63
75196;BME280;63773;42.282;22.782;2023-05-07T04:27:34;96737.03;;;9.40;75.86
75196;BME280;63773;42.282;22.782;2023-05-07T04:30:00;96738.84;;;9.51;75.51
75196;BME280;63773;42.282;22.782;2023-05-07T04:32:26;96747.88;;;9.52;75.40
75196;BME280;63773;42.282;22.782;2023-05-07T04:34:51;96744.91;;;9.70;75.45
75196;BME280;63773;42.282;22.782;2023-05-07T04:37:16;96744.06;;;9.86;74.55
75196;BME280;63773;42.282;22.782;2023-05-07T04:39:42;96742.63;;;10.00;74.65
75196;BME280;63773;42.282;22.782;2023-05-07T04:42:07;96745.84;;;10.14;75.01
75196;BME280;63773;42.282;22.782;2023-05-07T04:44:34;96750.97;;;10.27;74.47
75196;BME280;63773;42.282;22.782;2023-05-07T04:47:02;96700.09;;;10.09;74.73
75196;BME280;63773;42.282;22.782;2023-05-07T04:49:27;96756.38;;;10.43;73.99
75196;BME280;63773;42.282;22.782;2023-05-07T04:51:52;96756.69;;;10.69;73.57
75196;BME280;63773;42.282;22.782;2023-05-07T04:54:18;96747.19;;;10.76;72.73
75196;BME280;63773;42.282;22.782;2023-05-07T04:56:43;96760.75;;;10.88;72.97
75196;BME280;63773;42.282;22.782;2023-05-07T04:59:09;96754.06;;;11.00;72.37
75196;BME280;63773;42.282;22.782;2023-05-07T05:01:34;96752.91;;;11.23;71.98
75196;BME280;63773;42.282;22.782;2023-05-07T05:03:59;96720.03;;;11.23;71.08
75196;BME280;63773;42.282;22.782;2023-05-07T05:06:25;96752.63;;;11.51;70.38
75196;BME280;63773;42.282;22.782;2023-05-07T05:08:51;96716.41;;;11.49;69.96
75196;BME280;63773;42.282;22.782;2023-05-07T05:11:16;96742.97;;;11.76;69.61
75196;BME280;63773;42.282;22.782;2023-05-07T05:13:42;96749.91;;;11.88;69.20
75196;BME280;63773;42.282;22.782;2023-05-07T05:16:07;96746.06;;;11.84;69.64
75196;BME280;63773;42.282;22.782;2023-05-07T05:18:33;96745.41;;;12.14;69.43
75196;BME280;63773;42.282;22.782;2023-05-07T05:20:58;96743.66;;;12.40;68.18
75196;BME280;63773;42.282;22.782;2023-05-07T05:23:23;96746.56;;;12.70;67.49
75196;BME280;63773;42.282;22.782;2023-05-07T05:25:49;96743.56;;;12.82;66.64
75196;BME280;63773;42.282;22.782;2023-05-07T05:28:14;96747.44;;;12.91;68.05
75196;BME280;63773;42.282;22.782;2023-05-07T05:30:40;96735.91;;;12.89;67.16
75196;BME280;63773;42.282;22.782;2023-05-07T05:33:05;96730.97;;;12.96;68.28
75196;BME280;63773;42.282;22.782;2023-05-07T05:35:31;96748.56;;;12.95;67.89
75196;BME280;63773;42.282;22.782;2023-05-07T05:37:57;96714.56;;;13.16;66.44
75196;BME280;63773;42.282;22.782;2023-05-07T05:40:22;96711.28;;;13.34;65.63
75196;BME280;63773;42.282;22.782;2023-05-07T05:42:47;96752.56;;;13.54;65.42
75196;BME280;63773;42.282;22.782;2023-05-07T05:45:13;96751.19;;;13.57;66.83
75196;BME280;63773;42.282;22.782;2023-05-07T05:53:19;96748.41;;;13.72;64.59
75196;BME280;63773;42.282;22.782;2023-05-07T05:55:44;96742.91;;;14.02;64.04
75196;BME280;63773;42.282;22.782;2023-05-07T05:58:10;96727.19;;;14.18;63.57
75196;BME280;63773;42.282;22.782;2023-05-07T06:00:36;96726.94;;;13.89;63.20
75196;BME280;63773;42.282;22.782;2023-05-07T06:03:01;96717.00;;;14.23;63.68
75196;BME280;63773;42.282;22.782;2023-05-07T06:05:26;96745.38;;;14.04;62.18
75196;BME280;63773;42.282;22.782;2023-05-07T06:07:52;96748.13;;;14.19;63.05
75196;BME280;63773;42.282;22.782;2023-05-07T06:10:17;96744.22;;;14.40;62.99
75196;BME280;63773;42.282;22.782;2023-05-07T06:12:43;96735.56;;;14.77;62.65
75196;BME280;63773;42.282;22.782;2023-05-07T06:15:10;96736.84;;;14.99;60.57
75196;BME280;63773;42.282;22.782;2023-05-07T06:17:35;96733.13;;;15.19;59.94
75196;BME280;63773;42.282;22.782;2023-05-07T06:20:00;96732.16;;;15.49;60.62
75196;BME280;63773;42.282;22.782;2023-05-07T06:22:26;96733.88;;;15.35;59.03
75196;BME280;63773;42.282;22.782;2023-05-07T06:24:51;96729.38;;;15.44;59.95
75196;BME280;63773;42.282;22.782;2023-05-07T06:27:17;96724.59;;;15.65;59.08
75196;BME280;63773;42.282;22.782;2023-05-07T06:29:42;96730.41;;;15.92;58.96
75196;BME280;63773;42.282;22.782;2023-05-07T06:32:12;96722.63;;;16.28;57.46
75196;BME280;63773;42.282;22.782;2023-05-07T06:34:38;96719.22;;;16.36;58.57
75196;BME280;63773;42.282;22.782;2023-05-07T06:37:05;96716.69;;;16.15;57.13
75196;BME280;63773;42.282;22.782;2023-05-07T06:39:31;96716.69;;;16.15;56.82
75196;BME280;63773;42.282;22.782;2023-05-07T06:41:57;96711.16;;;15.87;56.95
75196;BME280;63773;42.282;22.782;2023-05-07T06:44:23;96698.06;;;15.69;58.12
75196;BME280;63773;42.282;22.782;2023-05-07T06:46:48;96675.66;;;15.75;58.96
75196;BME280;63773;42.282;22.782;2023-05-07T06:49:14;96697.41;;;16.10;56.74
75196;BME280;63773;42.282;22.782;2023-05-07T06:51:39;96701.19;;;15.91;57.10
75196;BME280;63773;42.282;22.782;2023-05-07T06:54:05;96698.03;;;16.02;58.56
75196;BME280;63773;42.282;22.782;2023-05-07T06:56:31;96697.00;;;16.46;58.41
75196;BME280;63773;42.282;22.782;2023-05-07T06:58:57;96700.81;;;16.79;57.21
75196;BME280;63773;42.282;22.782;2023-05-07T07:01:22;96688.66;;;16.98;55.91
75196;BME280;63773;42.282;22.782;2023-05-07T07:03:48;96695.47;;;16.82;55.64
75196;BME280;63773;42.282;22.782;2023-05-07T07:06:13;96694.13;;;16.80;55.27
75196;BME280;63773;42.282;22.782;2023-05-07T07:08:39;96699.59;;;17.27;53.56
75196;BME280;63773;42.282;22.782;2023-05-07T07:11:05;96655.84;;;16.92;54.81
75196;BME280;63773;42.282;22.782;2023-05-07T07:13:31;96692.31;;;17.68;52.80
75196;BME280;63773;42.282;22.782;2023-05-07T07:15:56;96680.78;;;17.80;52.21
75196;BME280;63773;42.282;22.782;2023-05-07T07:18:22;96678.06;;;18.07;53.44
75196;BME280;63773;42.282;22.782;2023-05-07T07:20:47;96685.34;;;17.71;53.47
75196;BME280;63773;42.282;22.782;2023-05-07T07:23:13;96684.53;;;18.03;53.41
75196;BME280;63773;42.282;22.782;2023-05-07T07:25:38;96674.53;;;18.34;54.25
75196;BME280;63773;42.282;22.782;2023-05-07T07:28:03;96666.69;;;18.68;51.89
75196;BME280;63773;42.282;22.782;2023-05-07T07:30:29;96671.56;;;18.98;51.72
75196;BME280;63773;42.282;22.782;2023-05-07T07:32:54;96670.16;;;19.23;51.41
75196;BME280;63773;42.282;22.782;2023-05-07T07:35:23;96661.09;;;19.31;50.19
75196;BME280;63773;42.282;22.782;2023-05-07T07:37:48;96675.88;;;19.76;49.50
75196;BME280;63773;42.282;22.782;2023-05-07T07:40:15;96673.25;;;20.02;47.43
75196;BME280;63773;42.282;22.782;2023-05-07T07:42:40;96667.31;;;20.17;47.30
75196;BME280;63773;42.282;22.782;2023-05-07T07:45:06;96676.25;;;20.05;48.23
75196;BME280;63773;42.282;22.782;2023-05-07T07:47:32;96669.34;;;20.25;45.47
75196;BME280;63773;42.282;22.782;2023-05-07T07:49:57;96671.84;;;20.13;46.90
75196;BME280;63773;42.282;22.782;2023-05-07T07:52:23;96675.22;;;20.54;47.77
75196;BME280;63773;42.282;22.782;2023-05-07T07:54:48;96668.13;;;20.79;46.70
75196;BME280;63773;42.282;22.782;2023-05-07T07:57:13;96663.06;;;20.42;45.40
75196;BME280;63773;42.282;22.782;2023-05-07T07:59:39;96660.88;;;20.69;45.96
75196;BME280;63773;42.282;22.782;2023-05-07T08:02:05;96657.03;;;20.96;42.99
75196;BME280;63773;42.282;22.782;2023-05-07T08:04:30;96658.94;;;20.79;43.49
75196;BME280;63773;42.282;22.782;2023-05-07T08:06:58;96654.44;;;21.00;45.13
75196;BME280;63773;42.282;22.782;2023-05-07T08:09:23;96652.19;;;21.10;44.03
75196;BME280;63773;42.282;22.782;2023-05-07T08:11:49;96651.56;;;21.39;43.43
75196;BME280;63773;42.282;22.782;2023-05-07T08:14:14;96646.78;;;21.40;43.03
75196;BME280;63773;42.282;22.782;2023-05-07T08:16:41;96638.44;;;21.74;42.11
75196;BME280;63773;42.282;22.782;2023-05-07T08:19:06;96604.19;;;21.65;41.99
75196;BME280;63773;42.282;22.782;2023-05-07T08:21:31;96636.31;;;21.19;41.37
75196;BME280;63773;42.282;22.782;2023-05-07T08:23:57;96633.69;;;21.83;44.44
75196;BME280;63773;42.282;22.782;2023-05-07T08:26:22;96632.38;;;21.63;42.27
75196;BME280;63773;42.282;22.782;2023-05-07T08:28:48;96602.03;;;21.96;43.68
75196;BME280;63773;42.282;22.782;2023-05-07T08:31:13;96630.19;;;22.58;42.79
75196;BME280;63773;42.282;22.782;2023-05-07T08:33:38;96620.47;;;22.73;40.84
75196;BME280;63773;42.282;22.782;2023-05-07T08:36:04;96620.53;;;22.18;39.33
75196;BME280;63773;42.282;22.782;2023-05-07T08:38:30;96617.38;;;22.28;40.79
75196;BME280;63773;42.282;22.782;2023-05-07T08:40:56;96610.63;;;22.37;39.64
75196;BME280;63773;42.282;22.782;2023-05-07T08:43:23;96610.72;;;22.87;39.82
75196;BME280;63773;42.282;22.782;2023-05-07T08:45:53;96604.06;;;23.50;40.42
75196;BME280;63773;42.282;22.782;2023-05-07T08:48:22;96598.69;;;23.78;40.50
75196;BME280;63773;42.282;22.782;2023-05-07T08:50:50;96606.47;;;24.05;39.77
75196;BME280;63773;42.282;22.782;2023-05-07T08:53:16;96572.53;;;24.16;39.26
75196;BME280;63773;42.282;22.782;2023-05-07T08:55:41;96558.66;;;24.31;35.45
75196;BME280;63773;42.282;22.782;2023-05-07T08:58:07;96557.94;;;24.22;35.62
75196;BME280;63773;42.282;22.782;2023-05-07T09:00:33;96546.94;;;24.05;36.93
75196;BME280;63773;42.282;22.782;2023-05-07T09:02:58;96593.66;;;24.04;36.89
75196;BME280;63773;42.282;22.782;2023-05-07T09:05:25;96583.81;;;24.19;38.15
75196;BME280;63773;42.282;22.782;2023-05-07T09:07:50;96577.69;;;24.38;39.55
75196;BME280;63773;42.282;22.782;2023-05-07T09:10:16;96574.66;;;24.55;34.92
75196;BME280;63773;42.282;22.782;2023-05-07T09:12:41;96581.06;;;23.98;37.09
75196;BME280;63773;42.282;22.782;2023-05-07T09:15:07;96496.66;;;23.72;38.13
75196;BME280;63773;42.282;22.782;2023-05-07T09:17:33;96557.97;;;24.46;37.01
75196;BME280;63773;42.282;22.782;2023-05-07T09:20:05;96566.72;;;24.69;37.80
75196;BME280;63773;42.282;22.782;2023-05-07T09:22:36;96528.47;;;24.49;38.93
75196;BME280;63773;42.282;22.782;2023-05-07T09:25:02;96565.69;;;24.86;39.11
75196;BME280;63773;42.282;22.782;2023-05-07T09:27:27;96543.22;;;25.22;36.74
75196;BME280;63773;42.282;22.782;2023-05-07T09:29:52;96548.44;;;25.36;36.03
75196;BME280;63773;42.282;22.782;2023-05-07T09:32:18;96542.94;;;25.95;38.11
75196;BME280;63773;42.282;22.782;2023-05-07T09:34:43;96543.66;;;26.35;34.75
75196;BME280;63773;42.282;22.782;2023-05-07T09:37:12;60326.22;;;-142.42;100.00
75196;BME280;63773;42.282;22.782;2023-05-07T09:39:39;60326.22;;;-142.42;100.00
75196;BME280;63773;42.282;22.782;2023-05-07T09:42:05;60326.22;;;-142.42;100.00
75196;BME280;63773;42.282;22.782;2023-05-07T09:44:32;60326.22;;;-142.42;100.00
75196;BME280;63773;42.282;22.782;2023-05-07T09:46:59;60326.22;;;-142.42;100.00
75196;BME280;63773;42.282;22.782;2023-05-07T09:49:29;60326.22;;;-142.42;100.00
75196;BME280;63773;42.282;22.782;2023-05-07T09:52:00;60326.22;;;-142.42;100.00
75196;BME280;63773;42.282;22.782;2023-05-07T09:54:26;60326.22;;;-142.42;100.00
75196;BME280;63773;42.282;22.782;2023-05-07T09:56:54;60326.22;;;-142.42;100.00
75196;BME280;63773;42.282;22.782;2023-05-07T09:59:21;60326.22;;;-142.42;100.00
75196;BME280;63773;42.282;22.782;2023-05-07T10:01:48;60326.22;;;-142.42;100.00
75196;BME280;63773;42.282;22.782;2023-05-07T10:04:14;60326.22;;;-142.42;100.00
75196;BME280;63773;42.282;22.782;2023-05-07T10:06:40;60326.22;;;-142.42;100.00
75196;BME280;63773;42.282;22.782;2023-05-07T10:09:06;60326.22;;;-142.42;100.00
75196;BME280;63773;42.282;22.782;2023-05-07T10:11:34;60326.22;;;-142.42;100.00
75196;BME280;63773;42.282;22.782;2023-05-07T10:14:01;60326.22;;;-142.42;100.00
75196;BME280;63773;42.282;22.782;2023-05-07T10:16:31;60326.22;;;-142.42;100.00
75196;BME280;63773;42.282;22.782;2023-05-07T10:18:58;60326.22;;;-142.42;100.00
75196;BME280;63773;42.282;22.782;2023-05-07T10:21:24;60326.22;;;-142.42;100.00
75196;BME280;63773;42.282;22.782;2023-05-07T10:24:00;60326.22;;;-142.42;100.00
75196;BME280;63773;42.282;22.782;2023-05-07T10:26:32;60326.22;;;-142.42;100.00
75196;BME280;63773;42.282;22.782;2023-05-07T10:29:05;60326.22;;;-142.42;100.00
75196;BME280;63773;42.282;22.782;2023-05-07T10:34:11;60326.22;;;-142.42;100.00
75196;BME280;63773;42.282;22.782;2023-05-07T10:36:38;60326.22;;;-142.42;100.00
75196;BME280;63773;42.282;22.782;2023-05-07T10:39:05;60326.22;;;-142.42;100.00
75196;BME280;63773;42.282;22.782;2023-05-07T10:41:31;60326.22;;;-142.42;100.00
75196;BME280;63773;42.282;22.782;2023-05-07T10:43:57;60326.22;;;-142.42;100.00
75196;BME280;63773;42.282;22.782;2023-05-07T10:46:26;60326.22;;;-142.42;100.00
75196;BME280;63773;42.282;22.782;2023-05-07T10:51:31;60326.22;;;-142.42;100.00
75196;BME280;63773;42.282;22.782;2023-05-07T10:56:36;60326.22;;;-142.42;100.00
75196;BME280;63773;42.282;22.782;2023-05-07T11:04:18;60326.22;;;-142.42;100.00
75196;BME280;63773;42.282;22.782;2023-05-07T11:17:32;60326.22;;;-142.42;100.00
75196;BME280;63773;42.282;22.782;2023-05-07T11:20:02;60326.22;;;-142.42;100.00
75196;BME280;63773;42.282;22.782;2023-05-07T11:25:03;60326.22;;;-142.42;100.00
75196;BME280;63773;42.282;22.782;2023-05-07T11:27:29;60326.22;;;-142.42;100.00
75196;BME280;63773;42.282;22.782;2023-05-07T11:29:55;60326.22;;;-142.42;100.00
75196;BME280;63773;42.282;22.782;2023-05-07T11:32:28;60326.22;;;-142.42;100.00
75196;BME280;63773;42.282;22.782;2023-05-07T11:34:55;60326.22;;;-142.42;100.00
75196;BME280;63773;42.282;22.782;2023-05-07T11:37:22;60326.22;;;-142.42;100.00
75196;BME280;63773;42.282;22.782;2023-05-07T11:39:48;60326.22;;;-142.42;100.00
75196;BME280;63773;42.282;22.782;2023-05-07T11:42:32;60326.22;;;-142.42;100.00
75196;BME280;63773;42.282;22.782;2023-05-07T11:44:58;60326.22;;;-142.42;100.00
75196;BME280;63773;42.282;22.782;2023-05-07T11:47:24;60326.22;;;-142.42;100.00
75196;BME280;63773;42.282;22.782;2023-05-07T11:49:51;60326.22;;;-142.42;100.00
75196;BME280;63773;42.282;22.782;2023-05-07T11:52:18;60326.22;;;-142.42;100.00
75196;BME280;63773;42.282;22.782;2023-05-07T11:54:54;60326.22;;;-142.42;100.00
75196;BME280;63773;42.282;22.782;2023-05-07T11:57:21;60326.22;;;-142.42;100.00
75196;BME280;63773;42.282;22.782;2023-05-07T11:59:47;60326.22;;;-142.42;100.00
75196;BME280;63773;42.282;22.782;2023-05-07T12:02:14;60326.22;;;-142.42;100.00
75196;BME280;63773;42.282;22.782;2023-05-07T12:04:40;60326.22;;;-142.42;100.00
75196;BME280;63773;42.282;22.782;2023-05-07T12:07:11;60326.22;;;-142.42;100.00
75196;BME280;63773;42.282;22.782;2023-05-07T12:09:37;60326.22;;;-142.42;100.00
75196;BME280;63773;42.282;22.782;2023-05-07T12:12:04;60326.22;;;-142.42;100.00
75196;BME280;63773;42.282;22.782;2023-05-07T12:14:29;60326.22;;;-142.42;100.00
75196;BME280;63773;42.282;22.782;2023-05-07T12:16:55;60326.22;;;-142.42;100.00
75196;BME280;63773;42.282;22.782;2023-05-07T12:19:21;60326.22;;;-142.42;100.00
75196;BME280;63773;42.282;22.782;2023-05-07T12:21:47;60326.22;;;-142.42;100.00
75196;BME280;63773;42.282;22.782;2023-05-07T12:24:14;60326.22;;;-142.42;100.00
75196;BME280;63773;42.282;22.782;2023-05-07T12:26:39;60326.22;;;-142.42;100.00
75196;BME280;63773;42.282;22.782;2023-05-07T12:29:06;60326.22;;;-142.42;100.00
75196;BME280;63773;42.282;22.782;2023-05-07T12:31:31;60326.22;;;-142.42;100.00
75196;BME280;63773;42.282;22.782;2023-05-07T12:33:57;60326.22;;;-142.42;100.00
75196;BME280;63773;42.282;22.782;2023-05-07T12:36:22;60326.22;;;-142.42;100.00
75196;BME280;63773;42.282;22.782;2023-05-07T12:38:49;60326.22;;;-142.42;100.00
75196;BME280;63773;42.282;22.782;2023-05-07T12:41:15;60326.22;;;-142.42;100.00
75196;BME280;63773;42.282;22.782;2023-05-07T12:43:43;60326.22;;;-142.42;100.00
75196;BME280;63773;42.282;22.782;2023-05-07T12:46:09;60326.22;;;-142.42;100.00
75196;BME280;63773;42.282;22.782;2023-05-07T12:48:38;60326.22;;;-142.42;100.00
75196;BME280;63773;42.282;22.782;2023-05-07T12:51:08;60326.22;;;-142.42;100.00
75196;BME280;63773;42.282;22.782;2023-05-07T12:53:40;60326.22;;;-142.42;100.00
75196;BME280;63773;42.282;22.782;2023-05-07T12:56:06;60326.22;;;-142.42;100.00
75196;BME280;63773;42.282;22.782;2023-05-07T12:58:33;60326.22;;;-142.42;100.00
75196;BME280;63773;42.282;22.782;2023-05-07T13:01:03;60326.22;;;-142.42;100.00
75196;BME280;63773;42.282;22.782;2023-05-07T13:03:38;60326.22;;;-142.42;100.00
75196;BME280;63773;42.282;22.782;2023-05-07T13:06:08;60326.22;;;-142.42;100.00
75196;BME280;63773;42.282;22.782;2023-05-07T13:08:41;60326.22;;;-142.42;100.00
75196;BME280;63773;42.282;22.782;2023-05-07T13:11:09;60326.22;;;-142.42;100.00
75196;BME280;63773;42.282;22.782;2023-05-07T13:13:36;60326.22;;;-142.42;100.00
75196;BME280;63773;42.282;22.782;2023-05-07T13:16:02;60326.22;;;-142.42;100.00